Aviation Digital Data Service (ADDS)

Output produced by METARs form (2152 UTC 19 February 2018)
found at http://www.aviationweather.gov/adds/metars/
 
LMML 192145Z 30010KT 9999 FEW020 12/09 Q1012 NOSIG
TAF LMML 191700Z 1918/2018 29015KT 9999 SCT020 
     PROB30 
     TEMPO 1918/2018 8000 SHRA BKN015